createdAt,value
2023-06-09T00:00:08.781Z,18.80
2023-06-09T00:02:37.032Z,18.80
2023-06-09T00:05:05.920Z,18.80
2023-06-09T00:07:37.334Z,18.76
2023-06-09T00:10:06.210Z,18.70
2023-06-09T00:12:34.058Z,18.70
2023-06-09T00:15:01.990Z,18.70
2023-06-09T00:17:31.252Z,18.68
2023-06-09T00:20:04.718Z,18.60
2023-06-09T00:22:32.937Z,18.60
2023-06-09T00:26:08.388Z,18.60
2023-06-09T00:29:53.142Z,18.50
2023-06-09T00:32:29.973Z,18.50
2023-06-09T00:34:57.851Z,18.50
2023-06-09T00:37:25.881Z,18.50
2023-06-09T00:39:53.858Z,18.50
2023-06-09T00:42:21.635Z,18.50
2023-06-09T00:44:49.637Z,18.48
2023-06-09T00:47:18.564Z,18.48
2023-06-09T00:49:47.091Z,18.44
2023-06-09T00:52:16.822Z,18.40
2023-06-09T00:54:45.160Z,18.40
2023-06-09T00:57:13.802Z,18.40
2023-06-09T00:59:41.739Z,18.40
2023-06-09T01:02:10.124Z,18.38
2023-06-09T01:04:38.090Z,18.30
2023-06-09T01:07:22.159Z,18.30
2023-06-09T01:10:10.584Z,18.30
2023-06-09T01:13:02.316Z,18.24
2023-06-09T01:15:38.774Z,18.20
2023-06-09T01:18:14.153Z,18.20
2023-06-09T01:20:46.013Z,18.20
2023-06-09T01:23:40.602Z,18.12
2023-06-09T01:26:09.989Z,18.10
2023-06-09T01:28:39.396Z,18.10
2023-06-09T01:31:09.620Z,18.10
2023-06-09T01:33:38.164Z,18.04
2023-06-09T01:36:07.127Z,18.00
2023-06-09T01:38:35.216Z,17.92
2023-06-09T01:41:05.096Z,17.90
2023-06-09T01:43:33.035Z,17.88
2023-06-09T01:46:01.231Z,17.82
2023-06-09T01:49:07.611Z,17.80
2023-06-09T01:51:42.643Z,17.80
2023-06-09T01:54:22.269Z,17.78
2023-06-09T01:57:06.735Z,17.70
2023-06-09T01:59:48.912Z,17.70
2023-06-09T02:02:20.467Z,17.60
2023-06-09T02:04:53.570Z,17.60
2023-06-09T02:07:23.081Z,17.50
2023-06-09T02:09:51.846Z,17.50
2023-06-09T02:12:19.835Z,17.40
2023-06-09T02:14:47.728Z,17.40
2023-06-09T02:17:16.876Z,17.40
2023-06-09T02:19:46.624Z,17.36
2023-06-09T02:22:14.519Z,17.30
2023-06-09T02:24:42.290Z,17.30
2023-06-09T02:27:10.170Z,17.30
2023-06-09T02:29:37.996Z,17.36
2023-06-09T02:32:06.422Z,17.36
2023-06-09T02:34:34.272Z,17.36
2023-06-09T02:37:03.516Z,17.36
2023-06-09T02:39:31.358Z,17.30
2023-06-09T02:41:59.772Z,17.30
2023-06-09T02:44:27.625Z,17.20
2023-06-09T02:46:56.015Z,17.20
2023-06-09T02:49:23.850Z,17.20
2023-06-09T02:51:51.684Z,17.20
2023-06-09T02:54:19.583Z,17.30
2023-06-09T02:56:47.588Z,17.30
2023-06-09T02:59:15.664Z,17.20
2023-06-09T03:01:44.035Z,17.20
2023-06-09T03:04:13.869Z,17.20
2023-06-09T03:06:44.634Z,17.20
2023-06-09T03:09:14.335Z,17.20
2023-06-09T03:11:42.469Z,17.20
2023-06-09T03:14:10.306Z,17.20
2023-06-09T03:16:38.233Z,17.20
2023-06-09T03:19:06.789Z,17.20
2023-06-09T03:21:36.766Z,17.20
2023-06-09T03:24:07.492Z,17.20
2023-06-09T03:26:35.486Z,17.24
2023-06-09T03:29:03.414Z,17.30
2023-06-09T03:31:31.433Z,17.40
2023-06-09T03:33:59.430Z,17.88
2023-06-09T03:36:28.358Z,18.10
2023-06-09T03:38:56.316Z,18.04
2023-06-09T03:41:24.069Z,18.10
2023-06-09T03:43:52.158Z,18.20
2023-06-09T03:46:20.180Z,18.68
2023-06-09T03:48:48.495Z,19.10
2023-06-09T03:51:17.530Z,19.10
2023-06-09T03:53:45.735Z,19.40
2023-06-09T03:56:15.100Z,19.80
2023-06-09T03:58:42.918Z,20.14
2023-06-09T04:01:12.246Z,20.40
2023-06-09T04:03:40.675Z,20.72
2023-06-09T04:06:08.609Z,20.98
2023-06-09T04:08:36.456Z,21.20
2023-06-09T04:11:04.294Z,21.40
2023-06-09T04:13:32.185Z,21.60
2023-06-09T04:16:00.066Z,21.80
2023-06-09T04:18:27.946Z,21.70
2023-06-09T04:20:55.790Z,21.60
2023-06-09T04:23:23.714Z,21.60
2023-06-09T04:25:54.683Z,21.80
2023-06-09T04:28:22.680Z,22.10
2023-06-09T04:30:51.428Z,22.30
2023-06-09T04:33:19.683Z,22.32
2023-06-09T04:35:48.103Z,22.52
2023-06-09T04:38:18.333Z,22.70
2023-06-09T04:40:47.026Z,22.70
2023-06-09T04:43:15.261Z,22.50
2023-06-09T04:45:44.664Z,22.30
2023-06-09T04:48:14.025Z,22.30
2023-06-09T04:50:46.074Z,22.30
2023-06-09T04:53:14.158Z,22.40
2023-06-09T04:55:42.804Z,22.40
2023-06-09T04:58:10.623Z,22.40
2023-06-09T05:00:38.599Z,22.40
2023-06-09T05:03:06.707Z,22.50
2023-06-09T05:05:34.616Z,22.50
2023-06-09T05:08:02.542Z,22.60
2023-06-09T05:10:30.558Z,22.50
2023-06-09T05:12:58.436Z,22.60
2023-06-09T05:15:27.732Z,22.70
2023-06-09T05:17:55.950Z,22.70
2023-06-09T05:20:23.885Z,22.50
2023-06-09T05:22:51.730Z,22.44
2023-06-09T05:25:20.427Z,22.40
2023-06-09T05:27:48.347Z,22.44
2023-06-09T05:30:16.344Z,22.60
2023-06-09T05:32:44.388Z,22.60
2023-06-09T05:35:15.472Z,22.60
2023-06-09T05:37:53.087Z,22.50
2023-06-09T05:40:21.495Z,22.50
2023-06-09T05:42:51.109Z,22.50
2023-06-09T05:45:19.044Z,22.50
2023-06-09T05:47:47.309Z,22.66
2023-06-09T05:50:15.462Z,22.64
2023-06-09T05:52:43.621Z,22.70
2023-06-09T05:55:12.108Z,22.60
2023-06-09T05:57:41.645Z,22.40
2023-06-09T06:00:11.063Z,22.30
2023-06-09T06:02:40.020Z,22.20
2023-06-09T06:05:09.312Z,22.10
2023-06-09T06:07:38.460Z,22.10
2023-06-09T06:10:08.167Z,22.10
2023-06-09T06:12:36.527Z,22.22
2023-06-09T06:15:05.057Z,22.36
2023-06-09T06:17:32.953Z,22.56
2023-06-09T06:20:00.966Z,22.76
2023-06-09T06:22:29.041Z,22.80
2023-06-09T06:24:57.655Z,22.98
2023-06-09T06:27:25.987Z,23.00
2023-06-09T06:29:54.067Z,22.90
2023-06-09T06:32:22.119Z,22.82
2023-06-09T06:34:50.320Z,22.90
2023-06-09T06:37:19.410Z,22.90
2023-06-09T06:39:47.245Z,23.00
2023-06-09T06:42:15.121Z,22.80
2023-06-09T06:44:43.104Z,22.76
2023-06-09T06:47:11.530Z,22.70
2023-06-09T06:49:39.623Z,22.60
2023-06-09T06:52:07.441Z,22.60
2023-06-09T06:54:35.357Z,22.60
2023-06-09T06:57:03.855Z,22.60
2023-06-09T06:59:31.605Z,22.60
2023-06-09T07:01:59.421Z,22.68
2023-06-09T07:04:27.460Z,22.70
2023-06-09T07:06:55.648Z,22.88
2023-06-09T07:09:24.915Z,22.90
2023-06-09T07:11:58.129Z,22.70
2023-06-09T07:14:25.915Z,22.50
2023-06-09T07:16:53.924Z,22.60
2023-06-09T07:19:21.727Z,22.60
2023-06-09T07:21:49.681Z,22.66
2023-06-09T07:24:17.679Z,22.70
2023-06-09T07:26:45.664Z,22.80
2023-06-09T07:29:13.915Z,22.76
2023-06-09T07:31:41.807Z,22.64
2023-06-09T07:34:09.904Z,22.60
2023-06-09T07:36:38.736Z,22.54
2023-06-09T07:39:07.055Z,22.68
2023-06-09T07:41:35.120Z,22.78
2023-06-09T07:44:04.046Z,22.90
2023-06-09T07:46:33.322Z,23.16
2023-06-09T07:49:01.959Z,23.30
2023-06-09T07:51:30.381Z,23.40
2023-06-09T07:53:58.301Z,23.40
2023-06-09T07:56:26.179Z,23.40
2023-06-09T07:58:54.231Z,23.20
2023-06-09T08:01:22.241Z,22.92
2023-06-09T08:03:50.376Z,22.80
2023-06-09T08:06:18.489Z,22.80
2023-06-09T08:08:46.458Z,22.90
2023-06-09T08:11:14.430Z,23.00
2023-06-09T08:13:42.364Z,23.00
2023-06-09T08:16:10.375Z,23.10
2023-06-09T08:18:38.398Z,23.10
2023-06-09T08:21:06.732Z,23.20
2023-06-09T08:23:35.274Z,23.10
2023-06-09T08:26:03.698Z,23.32
2023-06-09T08:28:32.132Z,23.60
2023-06-09T08:31:00.902Z,23.80
2023-06-09T08:33:30.977Z,23.70
2023-06-09T08:35:59.987Z,23.56
2023-06-09T08:38:29.289Z,23.38
2023-06-09T08:41:12.622Z,23.30
2023-06-09T08:43:40.878Z,23.40
2023-06-09T08:46:13.919Z,23.60
2023-06-09T08:48:52.706Z,23.80
2023-06-09T08:51:23.541Z,24.10
2023-06-09T08:53:56.551Z,24.20
2023-06-09T08:56:24.913Z,24.40
2023-06-09T08:58:53.863Z,24.50
2023-06-09T09:01:22.564Z,24.50
2023-06-09T09:03:51.819Z,24.50
2023-06-09T09:06:21.560Z,24.14
2023-06-09T09:08:51.719Z,24.00
2023-06-09T09:11:20.041Z,24.08
2023-06-09T09:13:51.339Z,23.90
2023-06-09T09:16:20.377Z,23.90
2023-06-09T09:18:49.505Z,24.04
2023-06-09T09:21:25.664Z,24.10
2023-06-09T09:24:05.750Z,24.40
2023-06-09T09:26:35.348Z,24.70
2023-06-09T09:29:08.142Z,24.90
2023-06-09T09:31:40.970Z,25.10
2023-06-09T09:34:14.677Z,25.00
2023-06-09T09:36:49.288Z,24.90
2023-06-09T09:39:17.945Z,24.84
2023-06-09T09:42:11.726Z,24.60
2023-06-09T09:44:44.838Z,24.40
2023-06-09T09:47:14.691Z,24.42
2023-06-09T09:50:00.172Z,24.40
2023-06-09T09:52:35.607Z,24.38
2023-06-09T09:55:09.959Z,24.40
2023-06-09T09:57:41.098Z,24.30
2023-06-09T10:00:13.998Z,24.40
2023-06-09T10:02:47.215Z,24.50
2023-06-09T10:05:17.549Z,24.60
2023-06-09T10:07:53.290Z,24.80
2023-06-09T10:10:21.896Z,24.90
2023-06-09T10:12:53.091Z,24.90
2023-06-09T10:15:22.347Z,24.90
2023-06-09T10:17:56.944Z,24.76
2023-06-09T10:20:25.399Z,24.80
2023-06-09T10:22:54.567Z,24.90
2023-06-09T10:25:25.512Z,24.98
2023-06-09T10:27:53.874Z,24.74
2023-06-09T10:30:22.611Z,24.70
2023-06-09T10:33:15.926Z,24.60
2023-06-09T10:35:48.837Z,24.70
2023-06-09T10:38:43.384Z,24.70
2023-06-09T10:41:35.562Z,24.54
2023-06-09T10:44:38.078Z,24.40
2023-06-09T10:47:06.496Z,24.32
2023-06-09T10:49:39.352Z,24.10
2023-06-09T10:52:29.556Z,24.12
2023-06-09T10:55:16.389Z,24.08
2023-06-09T10:57:44.620Z,23.80
2023-06-09T11:00:13.531Z,23.70
2023-06-09T11:02:50.352Z,23.60
2023-06-09T11:05:21.869Z,23.50
2023-06-09T11:08:04.828Z,23.44
2023-06-09T11:10:33.380Z,23.50
2023-06-09T11:13:03.747Z,23.52
2023-06-09T11:16:02.466Z,23.50
2023-06-09T11:18:32.837Z,23.50
2023-06-09T11:21:21.437Z,23.80
2023-06-09T11:24:05.436Z,23.74
2023-06-09T11:26:35.292Z,23.60
2023-06-09T11:29:05.400Z,23.80
2023-06-09T11:31:49.439Z,23.70
2023-06-09T11:34:51.410Z,24.00
2023-06-09T11:37:21.915Z,23.90
2023-06-09T11:39:51.483Z,23.50
2023-06-09T11:42:20.268Z,23.30
2023-06-09T11:44:49.123Z,23.36
2023-06-09T11:47:31.259Z,23.20
2023-06-09T11:50:20.290Z,23.10
2023-06-09T11:52:48.873Z,23.36
2023-06-09T11:55:16.846Z,23.50
2023-06-09T11:57:44.826Z,23.70
2023-06-09T12:00:20.944Z,23.70
2023-06-09T12:02:51.125Z,23.60
2023-06-09T12:05:20.516Z,23.70
2023-06-09T12:07:50.559Z,23.80
2023-06-09T12:10:23.393Z,23.50
2023-06-09T12:12:54.505Z,23.30
2023-06-09T12:15:24.908Z,23.10
2023-06-09T12:17:56.005Z,22.98
2023-06-09T12:20:30.080Z,22.90
2023-06-09T12:23:04.214Z,22.80
2023-06-09T12:25:36.446Z,22.98
2023-06-09T12:28:29.006Z,23.10
2023-06-09T12:31:19.879Z,23.10
2023-06-09T12:33:50.372Z,23.12
2023-06-09T12:36:20.454Z,22.94
2023-06-09T12:38:50.180Z,22.62
2023-06-09T12:41:19.408Z,22.70
2023-06-09T12:43:52.941Z,22.64
2023-06-09T12:46:41.767Z,22.60
2023-06-09T12:49:11.865Z,22.60
2023-06-09T12:51:43.634Z,22.70
2023-06-09T12:54:14.391Z,22.80
2023-06-09T12:56:42.292Z,23.00
2023-06-09T12:59:10.871Z,23.20
2023-06-09T13:01:39.841Z,23.30
2023-06-09T13:04:08.339Z,23.10
2023-06-09T13:06:37.683Z,23.10
2023-06-09T13:09:05.619Z,23.10
2023-06-09T13:11:33.569Z,23.10
2023-06-09T13:14:02.824Z,23.10
2023-06-09T13:16:32.715Z,23.00
2023-06-09T13:19:01.112Z,22.90
2023-06-09T13:21:43.705Z,22.70
2023-06-09T13:24:13.672Z,22.64
2023-06-09T13:26:42.299Z,22.48
2023-06-09T13:29:10.554Z,22.30
2023-06-09T13:31:38.668Z,22.20
2023-06-09T13:34:06.744Z,22.10
2023-06-09T13:36:35.339Z,22.10
2023-06-09T13:39:04.174Z,22.10
2023-06-09T13:41:32.308Z,22.20
2023-06-09T13:44:00.695Z,22.18
2023-06-09T13:46:28.696Z,22.20
2023-06-09T13:48:56.602Z,22.20
2023-06-09T13:51:24.664Z,22.20
2023-06-09T13:53:52.469Z,22.20
2023-06-09T13:56:22.465Z,22.20
2023-06-09T13:58:50.657Z,22.30
2023-06-09T14:01:18.854Z,22.20
2023-06-09T14:03:47.337Z,22.00
2023-06-09T14:06:15.553Z,21.80
2023-06-09T14:08:43.512Z,21.80
2023-06-09T14:11:11.436Z,21.70
2023-06-09T14:13:39.452Z,21.60
2023-06-09T14:16:07.364Z,21.50
2023-06-09T14:18:35.837Z,21.50
2023-06-09T14:21:04.977Z,21.56
2023-06-09T14:23:33.171Z,21.70
2023-06-09T14:26:01.198Z,21.60
2023-06-09T14:28:29.035Z,21.58
2023-06-09T14:30:57.380Z,21.60
2023-06-09T14:33:25.295Z,21.70
2023-06-09T14:35:53.221Z,21.70
2023-06-09T14:38:21.320Z,21.60
2023-06-09T14:40:49.247Z,21.60
2023-06-09T14:43:17.287Z,21.50
2023-06-09T14:45:45.198Z,21.42
2023-06-09T14:48:13.244Z,21.32
2023-06-09T14:50:45.725Z,21.20
2023-06-09T14:53:15.284Z,21.10
2023-06-09T14:55:48.838Z,21.10
2023-06-09T14:58:20.010Z,21.08
2023-06-09T15:00:48.370Z,21.12
2023-06-09T15:03:18.287Z,21.30
2023-06-09T15:05:47.497Z,21.40
2023-06-09T15:08:15.780Z,21.30
2023-06-09T15:10:46.761Z,21.40
2023-06-09T15:13:17.477Z,21.30
2023-06-09T15:15:49.100Z,21.30
2023-06-09T15:18:17.111Z,21.20
2023-06-09T15:20:45.317Z,21.20
2023-06-09T15:23:14.266Z,21.10
2023-06-09T15:25:45.582Z,21.00
2023-06-09T15:28:16.659Z,20.94
2023-06-09T15:30:48.954Z,20.90
2023-06-09T15:33:22.665Z,20.80
2023-06-09T15:35:54.291Z,20.70
2023-06-09T15:38:27.971Z,20.50
2023-06-09T15:40:57.880Z,20.40
2023-06-09T15:43:38.202Z,20.30
2023-06-09T15:46:06.386Z,20.40
2023-06-09T15:48:34.743Z,20.40
2023-06-09T15:51:02.773Z,20.30
2023-06-09T15:53:30.723Z,20.20
2023-06-09T15:55:58.636Z,20.02
2023-06-09T15:58:26.497Z,19.90
2023-06-09T16:00:54.346Z,19.80
2023-06-09T16:03:22.447Z,19.70
2023-06-09T16:05:50.569Z,19.70
2023-06-09T16:08:20.217Z,19.60
2023-06-09T16:10:52.471Z,19.50
2023-06-09T16:13:22.378Z,19.40
2023-06-09T16:15:52.008Z,19.30
2023-06-09T16:18:22.995Z,19.30
2023-06-09T16:20:51.391Z,19.20
2023-06-09T16:23:19.347Z,19.20
2023-06-09T16:25:47.229Z,19.30
2023-06-09T16:28:16.309Z,19.30
2023-06-09T16:30:44.922Z,19.20
2023-06-09T16:33:13.724Z,19.20
2023-06-09T16:35:41.670Z,19.20
2023-06-09T16:38:09.598Z,19.20
2023-06-09T16:40:40.234Z,19.20
2023-06-09T16:43:08.286Z,19.20
2023-06-09T16:45:36.197Z,19.12
2023-06-09T16:48:04.620Z,19.10
2023-06-09T16:50:32.624Z,19.10
2023-06-09T16:53:01.218Z,19.10
2023-06-09T16:55:29.174Z,19.20
2023-06-09T16:57:57.192Z,19.20
2023-06-09T17:00:25.067Z,19.20
2023-06-09T17:02:55.775Z,19.14
2023-06-09T17:05:24.774Z,19.20
2023-06-09T17:07:52.945Z,19.22
2023-06-09T17:10:21.255Z,19.20
2023-06-09T17:12:49.738Z,19.10
2023-06-09T17:15:17.902Z,19.08
2023-06-09T17:17:45.846Z,19.10
2023-06-09T17:20:14.068Z,19.00
2023-06-09T17:22:43.205Z,19.00
2023-06-09T17:25:11.363Z,18.90
2023-06-09T17:27:39.754Z,18.90
2023-06-09T17:30:14.359Z,18.80
2023-06-09T17:32:45.359Z,18.80
2023-06-09T17:35:14.362Z,18.76
2023-06-09T17:37:43.681Z,18.70
2023-06-09T17:40:13.275Z,18.70
2023-06-09T17:42:42.263Z,18.70
2023-06-09T17:45:12.687Z,18.60
2023-06-09T17:47:41.024Z,18.50
2023-06-09T17:50:10.122Z,18.50
2023-06-09T17:52:38.193Z,18.50
2023-06-09T17:55:07.208Z,18.50
2023-06-09T17:57:35.664Z,18.48
2023-06-09T18:00:06.749Z,18.40
2023-06-09T18:02:34.914Z,18.40
2023-06-09T18:05:04.521Z,18.30
2023-06-09T18:07:32.875Z,18.30
2023-06-09T18:10:03.087Z,18.20
2023-06-09T18:12:31.156Z,18.20
2023-06-09T18:14:59.438Z,18.20
2023-06-09T18:17:27.356Z,18.18
2023-06-09T18:19:56.325Z,18.12
2023-06-09T18:22:25.933Z,18.10
2023-06-09T18:24:53.891Z,18.10
2023-06-09T18:27:21.825Z,18.10
2023-06-09T18:29:49.691Z,18.10
2023-06-09T18:32:18.069Z,18.10
2023-06-09T18:34:49.873Z,18.00
2023-06-09T18:37:18.379Z,18.00
2023-06-09T18:39:46.439Z,17.90
2023-06-09T18:42:15.537Z,17.90
2023-06-09T18:44:44.049Z,17.90
2023-06-09T18:47:13.011Z,17.90
2023-06-09T18:49:41.141Z,17.90
2023-06-09T18:52:09.558Z,17.90
2023-06-09T18:54:37.610Z,17.90
2023-06-09T18:57:08.155Z,17.88
2023-06-09T18:59:36.182Z,17.90
2023-06-09T19:02:04.519Z,17.90
2023-06-09T19:04:32.396Z,17.90
2023-06-09T19:07:00.437Z,17.88
2023-06-09T19:09:28.378Z,17.86
2023-06-09T19:11:56.498Z,17.80
2023-06-09T19:14:24.526Z,17.82
2023-06-09T19:16:52.464Z,17.80
2023-06-09T19:19:20.750Z,17.80
2023-06-09T19:21:50.034Z,17.80
2023-06-09T19:24:18.150Z,17.82
2023-06-09T19:26:46.608Z,17.84
2023-06-09T19:29:14.526Z,17.86
2023-06-09T19:31:42.730Z,17.86
2023-06-09T19:34:11.257Z,17.86
2023-06-09T19:36:39.241Z,17.90
2023-06-09T19:39:07.802Z,17.90
2023-06-09T19:41:35.816Z,17.90
2023-06-09T19:44:03.916Z,17.90
2023-06-09T19:46:32.084Z,17.90
2023-06-09T19:49:03.373Z,17.84
2023-06-09T19:51:31.287Z,17.86
2023-06-09T19:54:00.406Z,17.90
2023-06-09T19:56:29.541Z,18.00
2023-06-09T19:58:57.406Z,18.00
2023-06-09T20:01:25.282Z,17.90
2023-06-09T20:03:53.228Z,17.90
2023-06-09T20:06:21.409Z,17.80
2023-06-09T20:08:49.424Z,17.80
2023-06-09T20:11:17.766Z,17.80
2023-06-09T20:13:47.997Z,17.80
2023-06-09T20:16:16.376Z,17.80
2023-06-09T20:18:44.267Z,17.76
2023-06-09T20:21:12.202Z,17.70
2023-06-09T20:23:43.736Z,17.70
2023-06-09T20:26:12.978Z,17.70
2023-06-09T20:28:43.366Z,17.70
2023-06-09T20:31:11.865Z,17.70
2023-06-09T20:33:49.448Z,17.68
2023-06-09T20:36:17.778Z,17.66
2023-06-09T20:38:46.074Z,17.60
2023-06-09T20:41:14.013Z,17.60
2023-06-09T20:43:41.920Z,17.60
2023-06-09T20:46:11.107Z,17.60
2023-06-09T20:48:40.229Z,17.60
2023-06-09T20:51:08.536Z,17.60
2023-06-09T20:53:38.674Z,17.60
2023-06-09T20:56:06.550Z,17.70
2023-06-09T20:58:34.572Z,17.70
2023-06-09T21:01:02.480Z,17.70
2023-06-09T21:03:38.963Z,17.70
2023-06-09T21:06:07.540Z,17.70
2023-06-09T21:08:35.720Z,17.72
2023-06-09T21:11:03.752Z,17.74
2023-06-09T21:13:32.745Z,17.80
2023-06-09T21:16:00.785Z,17.80
2023-06-09T21:18:28.713Z,17.80
2023-06-09T21:20:56.684Z,17.80
2023-06-09T21:23:25.333Z,17.80
2023-06-09T21:25:53.338Z,17.80
2023-06-09T21:28:21.211Z,17.80
2023-06-09T21:30:49.168Z,17.80
2023-06-09T21:33:17.088Z,17.80
2023-06-09T21:35:45.211Z,17.80
2023-06-09T21:38:13.104Z,17.80
2023-06-09T21:40:41.048Z,17.80
2023-06-09T21:43:09.441Z,17.72
2023-06-09T21:45:37.494Z,17.76
2023-06-09T21:48:05.757Z,17.74
2023-06-09T21:50:33.804Z,17.70
2023-06-09T21:53:02.168Z,17.70
2023-06-09T21:55:30.071Z,17.70
2023-06-09T21:58:01.925Z,17.70
2023-06-09T22:00:31.919Z,17.70
2023-06-09T22:03:01.684Z,17.70
2023-06-09T22:05:30.003Z,17.70
2023-06-09T22:07:57.868Z,17.70
2023-06-09T22:10:26.300Z,17.68
2023-06-09T22:12:54.285Z,17.70
2023-06-09T22:15:22.347Z,17.68
2023-06-09T22:17:50.264Z,17.60
2023-06-09T22:20:18.129Z,17.60
2023-06-09T22:22:45.980Z,17.64
2023-06-09T22:25:13.863Z,17.60
2023-06-09T22:27:41.925Z,17.60
2023-06-09T22:30:10.430Z,17.60
2023-06-09T22:32:38.290Z,17.58
2023-06-09T22:35:06.665Z,17.52
2023-06-09T22:37:35.109Z,17.50
2023-06-09T22:40:04.507Z,17.50
2023-06-09T22:42:32.595Z,17.50
2023-06-09T22:45:00.850Z,17.50
2023-06-09T22:47:28.814Z,17.50
2023-06-09T22:50:11.164Z,17.50
2023-06-09T22:52:46.353Z,17.50
2023-06-09T22:55:16.559Z,17.50
2023-06-09T22:57:49.817Z,17.50
2023-06-09T23:00:23.608Z,17.40
2023-06-09T23:02:52.981Z,17.42
2023-06-09T23:05:32.607Z,17.40
2023-06-09T23:08:01.047Z,17.40
2023-06-09T23:10:28.925Z,17.48
2023-06-09T23:12:56.900Z,17.40
2023-06-09T23:15:24.996Z,17.40
2023-06-09T23:17:53.810Z,17.42
2023-06-09T23:20:23.237Z,17.40
2023-06-09T23:22:54.080Z,17.40
2023-06-09T23:25:23.453Z,17.40
2023-06-09T23:27:51.965Z,17.40
2023-06-09T23:30:19.913Z,17.40
2023-06-09T23:32:47.969Z,17.40
2023-06-09T23:35:18.235Z,17.40
2023-06-09T23:37:47.072Z,17.40
2023-06-09T23:40:15.460Z,17.40
2023-06-09T23:42:43.320Z,17.40
2023-06-09T23:45:12.092Z,17.40
2023-06-09T23:47:40.238Z,17.40
2023-06-09T23:50:08.633Z,17.40
2023-06-09T23:52:37.232Z,17.40
2023-06-09T23:55:06.070Z,17.40
2023-06-09T23:57:34.868Z,17.40
